sensor_id;sensor_type;location;lat;lon;timestamp;temperature;humidity
4530;DHT22;2277;51.626;7.516;2022-10-16T00:01:10;15.70;99.90
4530;DHT22;2277;51.626;7.516;2022-10-16T00:03:38;15.60;99.90
4530;DHT22;2277;51.626;7.516;2022-10-16T00:06:04;15.60;99.90
4530;DHT22;2277;51.626;7.516;2022-10-16T00:08:30;15.70;99.90
4530;DHT22;2277;51.626;7.516;2022-10-16T00:11:11;15.70;99.90
4530;DHT22;2277;51.626;7.516;2022-10-16T00:13:39;15.70;99.90
4530;DHT22;2277;51.626;7.516;2022-10-16T00:16:06;15.80;99.90
4530;DHT22;2277;51.626;7.516;2022-10-16T00:18:31;15.70;99.90
4530;DHT22;2277;51.626;7.516;2022-10-16T00:21:13;15.60;99.90
4530;DHT22;2277;51.626;7.516;2022-10-16T00:23:39;15.60;99.90
4530;DHT22;2277;51.626;7.516;2022-10-16T00:26:08;15.60;99.90
4530;DHT22;2277;51.626;7.516;2022-10-16T00:28:34;15.70;99.90
4530;DHT22;2277;51.626;7.516;2022-10-16T00:31:03;15.60;99.90
4530;DHT22;2277;51.626;7.516;2022-10-16T00:33:29;15.50;99.90
4530;DHT22;2277;51.626;7.516;2022-10-16T00:35:58;15.40;99.90
4530;DHT22;2277;51.626;7.516;2022-10-16T00:38:24;15.30;99.90
4530;DHT22;2277;51.626;7.516;2022-10-16T00:40:50;15.30;99.90
4530;DHT22;2277;51.626;7.516;2022-10-16T00:43:48;15.30;99.90
4530;DHT22;2277;51.626;7.516;2022-10-16T00:46:38;15.30;99.90
4530;DHT22;2277;51.626;7.516;2022-10-16T00:51:40;15.30;99.90
4530;DHT22;2277;51.626;7.516;2022-10-16T00:54:14;15.40;99.90
4530;DHT22;2277;51.626;7.516;2022-10-16T00:56:43;15.40;99.90
4530;DHT22;2277;51.626;7.516;2022-10-16T01:01:53;15.30;99.90
4530;DHT22;2277;51.626;7.516;2022-10-16T01:04:19;15.30;99.90
4530;DHT22;2277;51.626;7.516;2022-10-16T01:15:42;15.20;99.90
4530;DHT22;2277;51.626;7.516;2022-10-16T01:18:28;15.20;99.90
4530;DHT22;2277;51.626;7.516;2022-10-16T01:20:58;15.30;99.90
4530;DHT22;2277;51.626;7.516;2022-10-16T01:23:59;15.40;99.90
4530;DHT22;2277;51.626;7.516;2022-10-16T01:29:42;15.40;99.90
4530;DHT22;2277;51.626;7.516;2022-10-16T01:32:32;15.50;99.90
4530;DHT22;2277;51.626;7.516;2022-10-16T01:35:02;15.40;99.90
4530;DHT22;2277;51.626;7.516;2022-10-16T01:37:40;15.40;99.90
4530;DHT22;2277;51.626;7.516;2022-10-16T01:40:11;15.30;99.90
4530;DHT22;2277;51.626;7.516;2022-10-16T01:42:43;15.30;99.90
4530;DHT22;2277;51.626;7.516;2022-10-16T01:45:13;15.30;99.90
4530;DHT22;2277;51.626;7.516;2022-10-16T01:47:41;15.20;99.90
4530;DHT22;2277;51.626;7.516;2022-10-16T01:50:08;15.20;99.90
4530;DHT22;2277;51.626;7.516;2022-10-16T01:52:39;15.20;99.90
4530;DHT22;2277;51.626;7.516;2022-10-16T01:55:08;15.20;99.90
4530;DHT22;2277;51.626;7.516;2022-10-16T01:57:42;15.30;99.90
4530;DHT22;2277;51.626;7.516;2022-10-16T02:00:12;15.30;99.90
4530;DHT22;2277;51.626;7.516;2022-10-16T02:02:40;15.20;99.90
4530;DHT22;2277;51.626;7.516;2022-10-16T02:05:12;15.30;99.90
4530;DHT22;2277;51.626;7.516;2022-10-16T02:07:41;15.30;99.90
4530;DHT22;2277;51.626;7.516;2022-10-16T02:10:08;15.30;99.90
4530;DHT22;2277;51.626;7.516;2022-10-16T02:12:36;15.30;99.90
4530;DHT22;2277;51.626;7.516;2022-10-16T02:15:05;15.30;99.90
4530;DHT22;2277;51.626;7.516;2022-10-16T02:17:31;15.30;99.90
4530;DHT22;2277;51.626;7.516;2022-10-16T02:19:58;15.20;99.90
4530;DHT22;2277;51.626;7.516;2022-10-16T02:22:28;15.10;99.90
4530;DHT22;2277;51.626;7.516;2022-10-16T02:25:22;15.10;99.90
4530;DHT22;2277;51.626;7.516;2022-10-16T02:28:16;15.00;99.90
4530;DHT22;2277;51.626;7.516;2022-10-16T02:30:46;15.10;99.90
4530;DHT22;2277;51.626;7.516;2022-10-16T02:33:15;15.20;99.90
4530;DHT22;2277;51.626;7.516;2022-10-16T02:35:44;15.10;99.90
4530;DHT22;2277;51.626;7.516;2022-10-16T02:38:10;15.10;99.90
4530;DHT22;2277;51.626;7.516;2022-10-16T02:40:37;15.20;99.90
4530;DHT22;2277;51.626;7.516;2022-10-16T02:43:04;15.30;99.90
4530;DHT22;2277;51.626;7.516;2022-10-16T02:45:30;15.20;99.90
4530;DHT22;2277;51.626;7.516;2022-10-16T02:47:56;15.20;99.90
4530;DHT22;2277;51.626;7.516;2022-10-16T02:50:22;15.10;99.90
4530;DHT22;2277;51.626;7.516;2022-10-16T02:52:47;15.20;99.90
4530;DHT22;2277;51.626;7.516;2022-10-16T02:55:13;15.10;99.90
4530;DHT22;2277;51.626;7.516;2022-10-16T02:57:39;15.10;99.90
4530;DHT22;2277;51.626;7.516;2022-10-16T03:00:07;15.00;99.90
4530;DHT22;2277;51.626;7.516;2022-10-16T03:02:33;15.00;99.90
4530;DHT22;2277;51.626;7.516;2022-10-16T03:04:58;15.10;99.90
4530;DHT22;2277;51.626;7.516;2022-10-16T03:07:24;15.00;99.90
4530;DHT22;2277;51.626;7.516;2022-10-16T03:09:50;15.10;99.90
4530;DHT22;2277;51.626;7.516;2022-10-16T03:12:15;15.00;99.90
4530;DHT22;2277;51.626;7.516;2022-10-16T03:14:41;15.10;99.90
4530;DHT22;2277;51.626;7.516;2022-10-16T03:17:06;15.00;99.90
4530;DHT22;2277;51.626;7.516;2022-10-16T03:19:32;15.00;99.90
4530;DHT22;2277;51.626;7.516;2022-10-16T03:21:58;15.00;99.90
4530;DHT22;2277;51.626;7.516;2022-10-16T03:24:23;15.10;99.90
4530;DHT22;2277;51.626;7.516;2022-10-16T03:26:49;15.10;99.90
4530;DHT22;2277;51.626;7.516;2022-10-16T03:29:14;15.10;99.90
4530;DHT22;2277;51.626;7.516;2022-10-16T03:31:40;15.10;99.90
4530;DHT22;2277;51.626;7.516;2022-10-16T03:34:05;15.30;99.90
4530;DHT22;2277;51.626;7.516;2022-10-16T03:36:31;15.30;99.90
4530;DHT22;2277;51.626;7.516;2022-10-16T03:38:57;15.30;99.90
4530;DHT22;2277;51.626;7.516;2022-10-16T03:41:22;15.20;99.90
4530;DHT22;2277;51.626;7.516;2022-10-16T03:43:48;15.20;99.90
4530;DHT22;2277;51.626;7.516;2022-10-16T03:46:13;15.20;99.90
4530;DHT22;2277;51.626;7.516;2022-10-16T03:48:39;15.30;99.90
4530;DHT22;2277;51.626;7.516;2022-10-16T03:51:05;15.30;99.90
4530;DHT22;2277;51.626;7.516;2022-10-16T03:53:31;15.30;99.90
4530;DHT22;2277;51.626;7.516;2022-10-16T03:55:56;15.40;99.90
4530;DHT22;2277;51.626;7.516;2022-10-16T03:58:22;15.40;99.90
4530;DHT22;2277;51.626;7.516;2022-10-16T04:00:48;15.30;99.90
4530;DHT22;2277;51.626;7.516;2022-10-16T04:03:14;15.30;99.90
4530;DHT22;2277;51.626;7.516;2022-10-16T04:05:39;15.30;99.90
4530;DHT22;2277;51.626;7.516;2022-10-16T04:08:05;15.20;99.90
4530;DHT22;2277;51.626;7.516;2022-10-16T04:10:31;15.20;99.90
4530;DHT22;2277;51.626;7.516;2022-10-16T04:12:57;15.30;99.90
4530;DHT22;2277;51.626;7.516;2022-10-16T04:15:23;15.20;99.90
4530;DHT22;2277;51.626;7.516;2022-10-16T04:17:50;15.10;99.90
4530;DHT22;2277;51.626;7.516;2022-10-16T04:20:16;15.10;99.90
4530;DHT22;2277;51.626;7.516;2022-10-16T04:22:42;15.20;99.90
4530;DHT22;2277;51.626;7.516;2022-10-16T04:25:08;15.30;99.90
4530;DHT22;2277;51.626;7.516;2022-10-16T04:27:33;15.20;99.90
4530;DHT22;2277;51.626;7.516;2022-10-16T04:29:59;15.20;99.90
4530;DHT22;2277;51.626;7.516;2022-10-16T04:32:26;15.20;99.90
4530;DHT22;2277;51.626;7.516;2022-10-16T04:34:52;15.20;99.90
4530;DHT22;2277;51.626;7.516;2022-10-16T04:37:18;15.30;99.90
4530;DHT22;2277;51.626;7.516;2022-10-16T04:39:44;15.30;99.90
4530;DHT22;2277;51.626;7.516;2022-10-16T04:42:10;15.30;99.90
4530;DHT22;2277;51.626;7.516;2022-10-16T04:44:36;15.30;99.90
4530;DHT22;2277;51.626;7.516;2022-10-16T04:47:01;15.20;99.90
4530;DHT22;2277;51.626;7.516;2022-10-16T04:49:27;15.20;99.90
4530;DHT22;2277;51.626;7.516;2022-10-16T04:51:53;15.30;99.90
4530;DHT22;2277;51.626;7.516;2022-10-16T04:54:18;15.30;99.90
4530;DHT22;2277;51.626;7.516;2022-10-16T04:56:44;15.20;99.90
4530;DHT22;2277;51.626;7.516;2022-10-16T04:59:14;15.10;99.90
4530;DHT22;2277;51.626;7.516;2022-10-16T05:01:39;15.10;99.90
4530;DHT22;2277;51.626;7.516;2022-10-16T05:04:05;15.10;99.90
4530;DHT22;2277;51.626;7.516;2022-10-16T05:06:30;15.10;99.90
4530;DHT22;2277;51.626;7.516;2022-10-16T05:08:56;15.00;99.90
4530;DHT22;2277;51.626;7.516;2022-10-16T05:11:21;15.10;99.90
4530;DHT22;2277;51.626;7.516;2022-10-16T05:13:47;15.00;99.90
4530;DHT22;2277;51.626;7.516;2022-10-16T05:16:13;15.00;99.90
4530;DHT22;2277;51.626;7.516;2022-10-16T05:18:38;15.00;99.90
4530;DHT22;2277;51.626;7.516;2022-10-16T05:21:04;15.10;99.90
4530;DHT22;2277;51.626;7.516;2022-10-16T05:23:31;15.10;99.90
4530;DHT22;2277;51.626;7.516;2022-10-16T05:25:57;15.10;99.90
4530;DHT22;2277;51.626;7.516;2022-10-16T05:28:24;15.10;99.90
4530;DHT22;2277;51.626;7.516;2022-10-16T05:30:50;15.10;99.90
4530;DHT22;2277;51.626;7.516;2022-10-16T05:33:16;15.10;99.90
4530;DHT22;2277;51.626;7.516;2022-10-16T05:35:41;15.00;99.90
4530;DHT22;2277;51.626;7.516;2022-10-16T05:38:07;15.10;99.90
4530;DHT22;2277;51.626;7.516;2022-10-16T05:40:33;15.00;99.90
4530;DHT22;2277;51.626;7.516;2022-10-16T05:42:58;15.10;99.90
4530;DHT22;2277;51.626;7.516;2022-10-16T05:45:24;15.10;99.90
4530;DHT22;2277;51.626;7.516;2022-10-16T05:47:49;15.10;99.90
4530;DHT22;2277;51.626;7.516;2022-10-16T05:50:15;15.20;99.90
4530;DHT22;2277;51.626;7.516;2022-10-16T05:52:41;15.10;99.90
4530;DHT22;2277;51.626;7.516;2022-10-16T05:55:07;15.10;99.90
4530;DHT22;2277;51.626;7.516;2022-10-16T05:57:32;15.10;99.90
4530;DHT22;2277;51.626;7.516;2022-10-16T05:59:58;15.20;99.90
4530;DHT22;2277;51.626;7.516;2022-10-16T06:02:24;15.10;99.90
4530;DHT22;2277;51.626;7.516;2022-10-16T06:04:51;15.10;99.90
4530;DHT22;2277;51.626;7.516;2022-10-16T06:07:19;15.20;99.90
4530;DHT22;2277;51.626;7.516;2022-10-16T06:09:47;15.10;99.90
4530;DHT22;2277;51.626;7.516;2022-10-16T06:12:13;15.10;99.90
4530;DHT22;2277;51.626;7.516;2022-10-16T06:14:38;15.00;99.90
4530;DHT22;2277;51.626;7.516;2022-10-16T06:17:04;15.10;99.90
4530;DHT22;2277;51.626;7.516;2022-10-16T06:19:29;15.20;99.90
4530;DHT22;2277;51.626;7.516;2022-10-16T06:21:55;15.20;99.90
4530;DHT22;2277;51.626;7.516;2022-10-16T06:24:23;15.20;99.90
4530;DHT22;2277;51.626;7.516;2022-10-16T06:26:48;15.20;99.90
4530;DHT22;2277;51.626;7.516;2022-10-16T06:29:14;15.20;99.90
4530;DHT22;2277;51.626;7.516;2022-10-16T06:31:40;15.20;99.90
4530;DHT22;2277;51.626;7.516;2022-10-16T06:34:05;15.30;99.90
4530;DHT22;2277;51.626;7.516;2022-10-16T06:36:35;15.20;99.90
4530;DHT22;2277;51.626;7.516;2022-10-16T06:39:00;15.10;99.90
4530;DHT22;2277;51.626;7.516;2022-10-16T06:41:26;15.20;99.90
4530;DHT22;2277;51.626;7.516;2022-10-16T06:43:52;15.20;99.90
4530;DHT22;2277;51.626;7.516;2022-10-16T06:46:21;15.20;99.90
4530;DHT22;2277;51.626;7.516;2022-10-16T06:48:47;15.20;99.90
4530;DHT22;2277;51.626;7.516;2022-10-16T06:51:17;15.10;99.90
4530;DHT22;2277;51.626;7.516;2022-10-16T06:53:46;15.20;99.90
4530;DHT22;2277;51.626;7.516;2022-10-16T06:56:21;15.20;99.90
4530;DHT22;2277;51.626;7.516;2022-10-16T06:58:47;15.30;99.90
4530;DHT22;2277;51.626;7.516;2022-10-16T07:01:14;15.30;99.90
4530;DHT22;2277;51.626;7.516;2022-10-16T07:03:41;15.20;99.90
4530;DHT22;2277;51.626;7.516;2022-10-16T07:06:08;15.30;99.90
4530;DHT22;2277;51.626;7.516;2022-10-16T07:08:36;15.40;99.90
4530;DHT22;2277;51.626;7.516;2022-10-16T07:11:04;15.40;99.90
4530;DHT22;2277;51.626;7.516;2022-10-16T07:13:33;15.30;99.90
4530;DHT22;2277;51.626;7.516;2022-10-16T07:16:07;15.40;99.90
4530;DHT22;2277;51.626;7.516;2022-10-16T07:18:32;15.40;99.90
4530;DHT22;2277;51.626;7.516;2022-10-16T07:21:18;15.40;99.90
4530;DHT22;2277;51.626;7.516;2022-10-16T07:23:44;15.50;99.90
4530;DHT22;2277;51.626;7.516;2022-10-16T07:26:11;15.50;99.90
4530;DHT22;2277;51.626;7.516;2022-10-16T07:28:36;15.40;99.90
4530;DHT22;2277;51.626;7.516;2022-10-16T07:31:04;15.50;99.90
4530;DHT22;2277;51.626;7.516;2022-10-16T07:33:31;15.50;99.90
4530;DHT22;2277;51.626;7.516;2022-10-16T07:35:57;15.60;99.90
4530;DHT22;2277;51.626;7.516;2022-10-16T07:38:23;15.70;99.90
4530;DHT22;2277;51.626;7.516;2022-10-16T07:40:58;15.60;99.90
4530;DHT22;2277;51.626;7.516;2022-10-16T07:43:25;15.70;99.90
4530;DHT22;2277;51.626;7.516;2022-10-16T07:45:51;15.60;99.90
4530;DHT22;2277;51.626;7.516;2022-10-16T07:48:17;15.80;99.90
4530;DHT22;2277;51.626;7.516;2022-10-16T07:50:44;15.80;99.90
4530;DHT22;2277;51.626;7.516;2022-10-16T07:53:10;15.90;99.90
4530;DHT22;2277;51.626;7.516;2022-10-16T07:55:36;15.90;99.90
4530;DHT22;2277;51.626;7.516;2022-10-16T07:58:01;16.10;99.90
4530;DHT22;2277;51.626;7.516;2022-10-16T08:00:27;16.10;99.90
4530;DHT22;2277;51.626;7.516;2022-10-16T08:02:53;16.20;99.90
4530;DHT22;2277;51.626;7.516;2022-10-16T08:05:18;16.20;99.90
4530;DHT22;2277;51.626;7.516;2022-10-16T08:07:48;16.40;99.90
4530;DHT22;2277;51.626;7.516;2022-10-16T08:10:20;16.70;99.90
4530;DHT22;2277;51.626;7.516;2022-10-16T08:12:46;16.90;99.90
4530;DHT22;2277;51.626;7.516;2022-10-16T08:15:11;17.10;99.90
4530;DHT22;2277;51.626;7.516;2022-10-16T08:17:37;17.30;99.90
4530;DHT22;2277;51.626;7.516;2022-10-16T08:20:03;17.50;99.90
4530;DHT22;2277;51.626;7.516;2022-10-16T08:22:29;17.70;99.90
4530;DHT22;2277;51.626;7.516;2022-10-16T08:24:54;18.00;99.90
4530;DHT22;2277;51.626;7.516;2022-10-16T08:27:20;18.20;99.90
4530;DHT22;2277;51.626;7.516;2022-10-16T08:29:46;18.30;99.90
4530;DHT22;2277;51.626;7.516;2022-10-16T08:32:11;18.50;99.90
4530;DHT22;2277;51.626;7.516;2022-10-16T08:34:37;18.70;99.90
4530;DHT22;2277;51.626;7.516;2022-10-16T08:37:02;18.80;99.90
4530;DHT22;2277;51.626;7.516;2022-10-16T08:39:28;18.90;99.90
4530;DHT22;2277;51.626;7.516;2022-10-16T08:47:40;19.50;99.90
4530;DHT22;2277;51.626;7.516;2022-10-16T08:50:13;19.70;99.90
4530;DHT22;2277;51.626;7.516;2022-10-16T08:52:42;19.80;99.90
4530;DHT22;2277;51.626;7.516;2022-10-16T08:55:27;20.10;99.90
4530;DHT22;2277;51.626;7.516;2022-10-16T08:57:54;20.30;99.90
4530;DHT22;2277;51.626;7.516;2022-10-16T09:00:20;20.40;99.90
4530;DHT22;2277;51.626;7.516;2022-10-16T09:08:20;20.60;99.90
4530;DHT22;2277;51.626;7.516;2022-10-16T09:16:42;21.10;99.90
4530;DHT22;2277;51.626;7.516;2022-10-16T09:21:44;21.40;99.90
4530;DHT22;2277;51.626;7.516;2022-10-16T09:24:25;21.50;99.90
4530;DHT22;2277;51.626;7.516;2022-10-16T09:26:51;21.60;99.90
4530;DHT22;2277;51.626;7.516;2022-10-16T09:29:18;21.80;99.90
4530;DHT22;2277;51.626;7.516;2022-10-16T09:31:51;22.00;99.90
4530;DHT22;2277;51.626;7.516;2022-10-16T09:36:51;22.10;99.90
4530;DHT22;2277;51.626;7.516;2022-10-16T09:39:17;22.20;99.90
4530;DHT22;2277;51.626;7.516;2022-10-16T09:41:44;22.20;99.90
4530;DHT22;2277;51.626;7.516;2022-10-16T09:44:30;22.30;99.90
4530;DHT22;2277;51.626;7.516;2022-10-16T09:47:05;22.40;99.90
4530;DHT22;2277;51.626;7.516;2022-10-16T09:49:31;22.60;99.90
4530;DHT22;2277;51.626;7.516;2022-10-16T09:52:13;22.70;99.90
4530;DHT22;2277;51.626;7.516;2022-10-16T09:54:52;22.80;99.90
4530;DHT22;2277;51.626;7.516;2022-10-16T09:57:18;22.90;99.90
4530;DHT22;2277;51.626;7.516;2022-10-16T09:59:49;22.90;99.90
4530;DHT22;2277;51.626;7.516;2022-10-16T10:02:17;23.00;99.90
4530;DHT22;2277;51.626;7.516;2022-10-16T10:04:51;22.90;99.90
4530;DHT22;2277;51.626;7.516;2022-10-16T10:07:32;22.80;99.90
4530;DHT22;2277;51.626;7.516;2022-10-16T10:10:00;22.90;99.90
4530;DHT22;2277;51.626;7.516;2022-10-16T10:12:31;23.30;99.90
4530;DHT22;2277;51.626;7.516;2022-10-16T10:15:13;23.40;99.90
4530;DHT22;2277;51.626;7.516;2022-10-16T10:17:56;23.40;99.90
4530;DHT22;2277;51.626;7.516;2022-10-16T10:20:23;23.20;99.90
4530;DHT22;2277;51.626;7.516;2022-10-16T10:22:49;23.10;99.90
4530;DHT22;2277;51.626;7.516;2022-10-16T10:38:54;23.40;99.90
4530;DHT22;2277;51.626;7.516;2022-10-16T10:46:53;23.60;99.90
4530;DHT22;2277;51.626;7.516;2022-10-16T10:57:29;23.70;99.90
4530;DHT22;2277;51.626;7.516;2022-10-16T11:03:24;23.90;99.90
4530;DHT22;2277;51.626;7.516;2022-10-16T11:05:57;23.90;99.90
4530;DHT22;2277;51.626;7.516;2022-10-16T11:09:10;23.80;99.90
4530;DHT22;2277;51.626;7.516;2022-10-16T11:11:32;23.80;99.90
4530;DHT22;2277;51.626;7.516;2022-10-16T11:14:08;23.70;99.90
4530;DHT22;2277;51.626;7.516;2022-10-16T11:16:55;23.70;99.90
4530;DHT22;2277;51.626;7.516;2022-10-16T11:19:39;23.60;99.90
4530;DHT22;2277;51.626;7.516;2022-10-16T11:27:55;23.30;99.90
4530;DHT22;2277;51.626;7.516;2022-10-16T11:30:25;23.00;99.90
4530;DHT22;2277;51.626;7.516;2022-10-16T11:35:53;22.90;99.90
4530;DHT22;2277;51.626;7.516;2022-10-16T11:40:56;22.60;99.90
4530;DHT22;2277;51.626;7.516;2022-10-16T11:43:36;22.70;99.90
4530;DHT22;2277;51.626;7.516;2022-10-16T11:46:08;22.80;99.90
4530;DHT22;2277;51.626;7.516;2022-10-16T11:48:55;22.80;99.90
4530;DHT22;2277;51.626;7.516;2022-10-16T11:51:36;22.90;99.90
4530;DHT22;2277;51.626;7.516;2022-10-16T11:54:14;23.00;99.90
4530;DHT22;2277;51.626;7.516;2022-10-16T11:56:43;23.20;99.90
4530;DHT22;2277;51.626;7.516;2022-10-16T12:10:33;23.90;99.90
4530;DHT22;2277;51.626;7.516;2022-10-16T12:13:48;23.80;99.90
4530;DHT22;2277;51.626;7.516;2022-10-16T12:15:49;23.90;99.90
4530;DHT22;2277;51.626;7.516;2022-10-16T12:18:24;23.90;99.90
4530;DHT22;2277;51.626;7.516;2022-10-16T12:20:57;23.80;99.90
4530;DHT22;2277;51.626;7.516;2022-10-16T12:23:53;23.60;99.90
4530;DHT22;2277;51.626;7.516;2022-10-16T12:26:28;23.60;99.90
4530;DHT22;2277;51.626;7.516;2022-10-16T12:28:55;23.70;99.90
4530;DHT22;2277;51.626;7.516;2022-10-16T12:31:21;23.60;99.90
4530;DHT22;2277;51.626;7.516;2022-10-16T12:33:59;23.50;99.90
4530;DHT22;2277;51.626;7.516;2022-10-16T12:36:29;23.60;99.90
4530;DHT22;2277;51.626;7.516;2022-10-16T12:38:56;23.70;99.90
4530;DHT22;2277;51.626;7.516;2022-10-16T12:43:50;23.70;99.90
4530;DHT22;2277;51.626;7.516;2022-10-16T12:48:43;24.00;99.90
4530;DHT22;2277;51.626;7.516;2022-10-16T12:51:23;24.00;99.90
4530;DHT22;2277;51.626;7.516;2022-10-16T12:54:11;24.10;99.90
4530;DHT22;2277;51.626;7.516;2022-10-16T13:02:41;24.50;99.90
4530;DHT22;2277;51.626;7.516;2022-10-16T13:07:47;24.40;99.90
4530;DHT22;2277;51.626;7.516;2022-10-16T13:10:28;24.40;99.90
4530;DHT22;2277;51.626;7.516;2022-10-16T13:15:39;24.20;99.90
4530;DHT22;2277;51.626;7.516;2022-10-16T13:18:33;24.00;99.90
4530;DHT22;2277;51.626;7.516;2022-10-16T13:24:02;23.90;99.90
4530;DHT22;2277;51.626;7.516;2022-10-16T13:29:21;24.10;99.90
4530;DHT22;2277;51.626;7.516;2022-10-16T13:31:47;24.10;99.90
4530;DHT22;2277;51.626;7.516;2022-10-16T13:34:19;24.20;99.90
4530;DHT22;2277;51.626;7.516;2022-10-16T13:36:52;24.20;99.90
4530;DHT22;2277;51.626;7.516;2022-10-16T13:39:26;24.30;99.90
4530;DHT22;2277;51.626;7.516;2022-10-16T13:42:11;24.30;99.90
4530;DHT22;2277;51.626;7.516;2022-10-16T13:44:51;24.40;99.90
4530;DHT22;2277;51.626;7.516;2022-10-16T13:47:28;24.50;99.90
4530;DHT22;2277;51.626;7.516;2022-10-16T13:50:03;24.60;99.90
4530;DHT22;2277;51.626;7.516;2022-10-16T13:52:30;24.70;99.90
4530;DHT22;2277;51.626;7.516;2022-10-16T13:54:56;24.80;99.90
4530;DHT22;2277;51.626;7.516;2022-10-16T13:57:23;25.00;99.90
4530;DHT22;2277;51.626;7.516;2022-10-16T13:59:49;25.20;99.90
4530;DHT22;2277;51.626;7.516;2022-10-16T14:02:20;25.20;99.90
4530;DHT22;2277;51.626;7.516;2022-10-16T14:04:47;25.30;99.90
4530;DHT22;2277;51.626;7.516;2022-10-16T14:07:20;25.20;99.90
4530;DHT22;2277;51.626;7.516;2022-10-16T14:09:50;25.00;99.90
4530;DHT22;2277;51.626;7.516;2022-10-16T14:12:15;24.90;99.90
4530;DHT22;2277;51.626;7.516;2022-10-16T14:14:44;24.80;99.90
4530;DHT22;2277;51.626;7.516;2022-10-16T14:17:31;24.80;99.90
4530;DHT22;2277;51.626;7.516;2022-10-16T14:19:59;24.90;99.90
4530;DHT22;2277;51.626;7.516;2022-10-16T14:22:31;25.00;99.90
4530;DHT22;2277;51.626;7.516;2022-10-16T14:24:57;24.90;99.90
4530;DHT22;2277;51.626;7.516;2022-10-16T14:27:33;24.70;99.90
4530;DHT22;2277;51.626;7.516;2022-10-16T14:30:12;24.70;99.90
4530;DHT22;2277;51.626;7.516;2022-10-16T14:32:41;24.70;99.90
4530;DHT22;2277;51.626;7.516;2022-10-16T14:35:33;24.70;99.90
4530;DHT22;2277;51.626;7.516;2022-10-16T14:38:00;24.60;99.90
4530;DHT22;2277;51.626;7.516;2022-10-16T14:40:31;24.50;99.90
4530;DHT22;2277;51.626;7.516;2022-10-16T14:42:58;24.50;99.90
4530;DHT22;2277;51.626;7.516;2022-10-16T14:45:27;24.40;99.90
4530;DHT22;2277;51.626;7.516;2022-10-16T14:47:58;24.30;99.90
4530;DHT22;2277;51.626;7.516;2022-10-16T14:50:25;24.20;99.90
4530;DHT22;2277;51.626;7.516;2022-10-16T14:52:50;24.20;99.90
4530;DHT22;2277;51.626;7.516;2022-10-16T14:55:16;24.10;99.90
4530;DHT22;2277;51.626;7.516;2022-10-16T14:57:43;24.10;99.90
4530;DHT22;2277;51.626;7.516;2022-10-16T15:00:19;23.90;99.90
4530;DHT22;2277;51.626;7.516;2022-10-16T15:02:46;23.80;99.90
4530;DHT22;2277;51.626;7.516;2022-10-16T15:07:40;23.80;99.90
4530;DHT22;2277;51.626;7.516;2022-10-16T15:10:06;23.80;99.90
4530;DHT22;2277;51.626;7.516;2022-10-16T15:12:32;23.80;99.90
4530;DHT22;2277;51.626;7.516;2022-10-16T15:14:57;23.80;99.90
4530;DHT22;2277;51.626;7.516;2022-10-16T15:17:23;23.80;99.90
4530;DHT22;2277;51.626;7.516;2022-10-16T15:19:48;23.70;99.90
4530;DHT22;2277;51.626;7.516;2022-10-16T15:22:14;23.70;99.90
4530;DHT22;2277;51.626;7.516;2022-10-16T15:24:39;23.60;99.90
4530;DHT22;2277;51.626;7.516;2022-10-16T15:27:05;23.50;99.90
4530;DHT22;2277;51.626;7.516;2022-10-16T15:29:30;23.50;99.90
4530;DHT22;2277;51.626;7.516;2022-10-16T15:31:56;23.40;99.90
4530;DHT22;2277;51.626;7.516;2022-10-16T15:34:22;23.40;99.90
4530;DHT22;2277;51.626;7.516;2022-10-16T15:36:47;23.40;99.90
4530;DHT22;2277;51.626;7.516;2022-10-16T15:39:15;23.30;99.90
4530;DHT22;2277;51.626;7.516;2022-10-16T15:41:42;23.20;99.90
4530;DHT22;2277;51.626;7.516;2022-10-16T15:44:08;23.20;99.90
4530;DHT22;2277;51.626;7.516;2022-10-16T15:46:33;23.10;99.90
4530;DHT22;2277;51.626;7.516;2022-10-16T15:49:00;23.00;99.90
4530;DHT22;2277;51.626;7.516;2022-10-16T15:51:27;23.00;99.90
4530;DHT22;2277;51.626;7.516;2022-10-16T15:53:56;22.90;99.90
4530;DHT22;2277;51.626;7.516;2022-10-16T15:56:22;22.90;99.90
4530;DHT22;2277;51.626;7.516;2022-10-16T15:58:51;22.80;99.90
4530;DHT22;2277;51.626;7.516;2022-10-16T16:01:16;22.80;99.90
4530;DHT22;2277;51.626;7.516;2022-10-16T16:03:42;22.70;99.90
4530;DHT22;2277;51.626;7.516;2022-10-16T16:06:12;22.70;99.90
4530;DHT22;2277;51.626;7.516;2022-10-16T16:08:38;22.70;99.90
4530;DHT22;2277;51.626;7.516;2022-10-16T16:11:09;22.60;99.90
4530;DHT22;2277;51.626;7.516;2022-10-16T16:13:35;22.50;99.90
4530;DHT22;2277;51.626;7.516;2022-10-16T16:16:15;22.40;99.90
4530;DHT22;2277;51.626;7.516;2022-10-16T16:18:41;22.30;99.90
4530;DHT22;2277;51.626;7.516;2022-10-16T16:21:08;22.40;99.90
4530;DHT22;2277;51.626;7.516;2022-10-16T16:23:34;22.30;99.90
4530;DHT22;2277;51.626;7.516;2022-10-16T16:26:11;22.30;99.90
4530;DHT22;2277;51.626;7.516;2022-10-16T16:28:38;22.10;99.90
4530;DHT22;2277;51.626;7.516;2022-10-16T16:31:04;22.00;99.90
4530;DHT22;2277;51.626;7.516;2022-10-16T16:33:30;22.00;99.90
4530;DHT22;2277;51.626;7.516;2022-10-16T16:36:02;22.00;99.90
4530;DHT22;2277;51.626;7.516;2022-10-16T16:38:29;21.90;99.90
4530;DHT22;2277;51.626;7.516;2022-10-16T16:40:55;21.80;99.90
4530;DHT22;2277;51.626;7.516;2022-10-16T16:43:25;21.80;99.90
4530;DHT22;2277;51.626;7.516;2022-10-16T16:45:50;21.80;99.90
4530;DHT22;2277;51.626;7.516;2022-10-16T16:48:16;21.80;99.90
4530;DHT22;2277;51.626;7.516;2022-10-16T16:50:42;21.70;99.90
4530;DHT22;2277;51.626;7.516;2022-10-16T16:53:07;21.70;99.90
4530;DHT22;2277;51.626;7.516;2022-10-16T16:55:33;21.70;99.90
4530;DHT22;2277;51.626;7.516;2022-10-16T16:57:59;21.60;99.90
4530;DHT22;2277;51.626;7.516;2022-10-16T17:00:24;21.60;99.90
4530;DHT22;2277;51.626;7.516;2022-10-16T17:02:50;21.60;99.90
4530;DHT22;2277;51.626;7.516;2022-10-16T17:05:16;21.50;99.90
4530;DHT22;2277;51.626;7.516;2022-10-16T17:07:42;21.50;99.90
4530;DHT22;2277;51.626;7.516;2022-10-16T17:10:08;21.50;99.90
4530;DHT22;2277;51.626;7.516;2022-10-16T17:12:34;21.40;99.90
4530;DHT22;2277;51.626;7.516;2022-10-16T17:14:59;21.40;99.90
4530;DHT22;2277;51.626;7.516;2022-10-16T17:17:25;21.30;99.90
4530;DHT22;2277;51.626;7.516;2022-10-16T17:19:51;21.20;99.90
4530;DHT22;2277;51.626;7.516;2022-10-16T17:22:18;21.20;99.90
4530;DHT22;2277;51.626;7.516;2022-10-16T17:24:44;21.20;99.90
4530;DHT22;2277;51.626;7.516;2022-10-16T17:27:14;21.10;99.90
4530;DHT22;2277;51.626;7.516;2022-10-16T17:29:40;21.10;99.90
4530;DHT22;2277;51.626;7.516;2022-10-16T17:32:06;21.00;99.90
4530;DHT22;2277;51.626;7.516;2022-10-16T17:34:32;21.00;99.90
4530;DHT22;2277;51.626;7.516;2022-10-16T17:36:57;21.00;99.90
4530;DHT22;2277;51.626;7.516;2022-10-16T17:39:26;20.90;99.90
4530;DHT22;2277;51.626;7.516;2022-10-16T17:41:52;20.90;99.90
4530;DHT22;2277;51.626;7.516;2022-10-16T17:44:18;20.90;99.90
4530;DHT22;2277;51.626;7.516;2022-10-16T17:46:49;20.90;99.90
4530;DHT22;2277;51.626;7.516;2022-10-16T17:49:15;20.80;99.90
4530;DHT22;2277;51.626;7.516;2022-10-16T17:51:42;20.80;99.90
4530;DHT22;2277;51.626;7.516;2022-10-16T17:54:08;20.70;99.90
4530;DHT22;2277;51.626;7.516;2022-10-16T17:56:33;20.70;99.90
4530;DHT22;2277;51.626;7.516;2022-10-16T17:59:00;20.70;99.90
4530;DHT22;2277;51.626;7.516;2022-10-16T18:01:36;20.60;99.90
4530;DHT22;2277;51.626;7.516;2022-10-16T18:04:05;20.50;99.90
4530;DHT22;2277;51.626;7.516;2022-10-16T18:06:32;20.40;99.90
4530;DHT22;2277;51.626;7.516;2022-10-16T18:08:59;20.40;99.90
4530;DHT22;2277;51.626;7.516;2022-10-16T18:11:25;20.40;99.90